Stadt Schwerin — V2OK — position and weather

sailwx.info

Track history (hours):
 
Tides and Currents Weather Stations Pressure Air Temp Water Temp Dewpoint Dewpoint Depression Visibility Wind Speed Wind Dir Waves Ship Positions

Stadt Schwerin

Last reported at 2014-Jul-23 11:15 UTC. Time now 2014-Jul-23 11:58 UTC.
Position N 36°49' E 003°05'.

Length 158 m; draft 9.6 m.

Type: Cargo ship. MMSI: 304010999.

Date/timePositionNaut miles runAvg speedWind from/ knotsBaromVisibWave heightAir tempDewpointWater temp
2014-Jul-23 11:15N 36°49' E 003°05'0 0.0
2014-Jul-23 10:21N 36°49' E 003°05'0 0.0
2014-Jul-23 09:18N 36°49' E 003°05'0 0.0
2014-Jul-23 08:33N 36°49' E 003°05'0 0.0
2014-Jul-23 07:33N 36°49' E 003°05'0 0.0
2014-Jul-23 06:30N 36°49' E 003°05'0 0.0
2014-Jul-23 05:27N 36°49' E 003°05'0 0.0
2014-Jul-23 04:26N 36°49' E 003°05'0 0.0
2014-Jul-23 02:32N 36°49' E 003°05'0 0.0
2014-Jul-23 01:32N 36°49' E 003°05'0 0.0
2014-Jul-23 00:32N 36°49' E 003°05'0 0.0
2014-Jul-22 23:33N 36°49' E 003°05'0 0.0
2014-Jul-22 21:27N 36°49' E 003°05'0 0.0
2014-Jul-22 20:05N 36°49' E 003°05'0 0.0
2014-Jul-22 19:32N 36°49' E 003°05'0 0.0
2014-Jul-22 15:24N 36°49' E 003°05'0 0.0
2014-Jul-22 14:29N 36°49' E 003°05'0 0.0
2014-Jul-22 13:32N 36°49' E 003°05'0 0.0
2014-Jul-22 12:29N 36°49' E 003°05'0 0.0
2014-Jul-22 11:32N 36°49' E 003°05'0 0.0
2014-Jul-22 10:32N 36°49' E 003°05'0 0.0
2014-Jul-22 04:33N 36°49' E 003°05'0 0.0
2014-Jul-22 03:09N 36°49' E 003°05'0 0.0
2014-Jul-22 02:32N 36°49' E 003°05'0 0.0
2014-Jul-22 01:27N 36°49' E 003°05'0 0.0
2014-Jul-21 23:27N 36°49' E 003°05'0 0.0
2014-Jul-21 22:18N 36°49' E 003°05'0 0.1
2014-Jul-21 21:15N 36°49' E 003°05'4 0.7
2014-Jul-21 15:32N 36°50' E 003°10'1513.7
2014-Jul-21 14:25N 36°55' E 003°28'32012.9
2014-Jul-20 13:33N 37°39' E 010°07'2813.0
2014-Jul-20 11:26N 37°34' E 010°41'1213.7
2014-Jul-20 10:33N 37°31' E 010°56'6613.1
2014-Jul-20 05:32N 36°58' E 012°07'1313.0
2014-Jul-20 04:33N 36°51' E 012°21'1313.1
2014-Jul-20 03:33N 36°44' E 012°35'1312.9
2014-Jul-20 02:33N 36°37' E 012°48'1312.8
2014-Jul-20 01:33N 36°29' E 013°01'1312.6
2014-Jul-20 00:33N 36°22' E 013°14'1312.7
2014-Jul-19 23:33N 36°15' E 013°27'1313.3
2014-Jul-19 22:33N 36°07' E 013°40'1313.4
2014-Jul-19 21:33N 36°00' E 013°54'1313.4
2014-Jul-19 20:33N 35°53' E 014°08'1713.3
2014-Jul-19 19:18N 35°44' E 014°26'8 9.8
2014-Jul-19 18:31N 35°49' E 014°34'1 0.9
2014-Jul-19 17:15N 35°49' E 014°32'0 0.0
2014-Jul-19 13:27N 35°49' E 014°32'0 0.0
2014-Jul-19 03:27N 35°49' E 014°32'0 0.0
2014-Jul-18 22:32N 35°49' E 014°32'0 0.0
2014-Jul-18 21:32N 35°49' E 014°32'0 0.0
2014-Jul-18 16:23N 35°49' E 014°32'0 0.0
2014-Jul-18 15:29N 35°49' E 014°32'0 0.0
2014-Jul-18 14:32N 35°49' E 014°32'0 0.0
2014-Jul-18 13:29N 35°49' E 014°32'0 0.0
2014-Jul-18 12:32N 35°49' E 014°32'0 0.0
2014-Jul-18 11:17N 35°49' E 014°32'0 0.0
2014-Jul-18 10:32N 35°49' E 014°32'42 1.9
2014-Jul-17 12:05N 36°04' E 013°44'713.4
2014-Jul-17 11:32N 36°08' E 013°37'1413.9
2014-Jul-17 10:33N 36°15' E 013°22'1614.2
2014-Jul-17 09:24N 36°24' E 013°05'1214.0
2014-Jul-17 08:32N 36°31' E 012°53'41013.7
2014-Jul-16 02:33N 37°04' E 004°22'1615.3
2014-Jul-16 01:31N 37°02' E 004°03'1213.0
2014-Jul-16 00:34N 36°60' E 003°47'1414.1
2014-Jul-15 23:32N 36°56' E 003°30'1313.5
2014-Jul-15 22:33N 36°52' E 003°14'10 9.7
2014-Jul-15 21:31N 36°46' E 003°04'0 0.0
2014-Jul-15 10:06N 36°46' E 003°04'0 0.0
2014-Jul-15 09:30N 36°46' E 003°04'0 0.0
2014-Jul-15 01:09N 36°46' E 003°04'0 0.0
2014-Jul-14 23:33N 36°46' E 003°04'0 0.0
2014-Jul-14 22:33N 36°46' E 003°04'0 0.0
2014-Jul-14 20:30N 36°46' E 003°04'0 0.0
2014-Jul-14 19:24N 36°46' E 003°04'0 0.0
2014-Jul-14 18:30N 36°46' E 003°04'0 0.0
2014-Jul-14 17:30N 36°46' E 003°04'0 0.0
2014-Jul-14 16:18N 36°46' E 003°04'0 0.0
2014-Jul-14 14:30N 36°46' E 003°04'0 0.0
2014-Jul-14 13:12N 36°46' E 003°04'0 0.0
2014-Jul-14 10:30N 36°46' E 003°04'0 0.0
2014-Jul-14 09:12N 36°46' E 003°04'0 0.0
2014-Jul-14 08:30N 36°46' E 003°04'0 0.0
2014-Jul-14 04:30N 36°46' E 003°04'0 0.0
2014-Jul-14 01:18N 36°46' E 003°04'0 0.0
2014-Jul-14 00:24N 36°46' E 003°04'0 0.0
2014-Jul-13 19:06N 36°46' E 003°04'0 0.0
2014-Jul-13 18:30N 36°46' E 003°04'0 0.0
2014-Jul-13 17:11N 36°46' E 003°04'0 0.0
2014-Jul-13 16:32N 36°46' E 003°04'0 0.0
2014-Jul-13 13:11N 36°46' E 003°04'  
Track history (hours):
 
Tides and Currents Weather Stations Pressure Air Temp Water Temp Dewpoint Dewpoint Depression Visibility Wind Speed Wind Dir Waves Ship Positions

Stadt Schwerin

Last reported at 2014-Jul-23 11:15 UTC. Time now 2014-Jul-23 11:58 UTC.
Position N 36°49' E 003°05'.

Length 158 m; draft 9.6 m.

Type: Cargo ship. MMSI: 304010999.

Date/timePositionNaut miles runAvg speedWind from/ knotsBaromVisibWave heightAir tempDewpointWater temp
2014-Jul-23 11:15N 36°49' E 003°05'0 0.0
2014-Jul-23 10:21N 36°49' E 003°05'0 0.0
2014-Jul-23 09:18N 36°49' E 003°05'0 0.0
2014-Jul-23 08:33N 36°49' E 003°05'0 0.0
2014-Jul-23 07:33N 36°49' E 003°05'0 0.0
2014-Jul-23 06:30N 36°49' E 003°05'0 0.0
2014-Jul-23 05:27N 36°49' E 003°05'0 0.0
2014-Jul-23 04:26N 36°49' E 003°05'0 0.0
2014-Jul-23 02:32N 36°49' E 003°05'0 0.0
2014-Jul-23 01:32N 36°49' E 003°05'0 0.0
2014-Jul-23 00:32N 36°49' E 003°05'0 0.0
2014-Jul-22 23:33N 36°49' E 003°05'0 0.0
2014-Jul-22 21:27N 36°49' E 003°05'0 0.0
2014-Jul-22 20:05N 36°49' E 003°05'0 0.0
2014-Jul-22 19:32N 36°49' E 003°05'0 0.0
2014-Jul-22 15:24N 36°49' E 003°05'0 0.0
2014-Jul-22 14:29N 36°49' E 003°05'0 0.0
2014-Jul-22 13:32N 36°49' E 003°05'0 0.0
2014-Jul-22 12:29N 36°49' E 003°05'0 0.0
2014-Jul-22 11:32N 36°49' E 003°05'0 0.0
2014-Jul-22 10:32N 36°49' E 003°05'0 0.0
2014-Jul-22 04:33N 36°49' E 003°05'0 0.0
2014-Jul-22 03:09N 36°49' E 003°05'0 0.0
2014-Jul-22 02:32N 36°49' E 003°05'0 0.0
2014-Jul-22 01:27N 36°49' E 003°05'0 0.0
2014-Jul-21 23:27N 36°49' E 003°05'0 0.0
2014-Jul-21 22:18N 36°49' E 003°05'0 0.1
2014-Jul-21 21:15N 36°49' E 003°05'4 0.7
2014-Jul-21 15:32N 36°50' E 003°10'1513.7
2014-Jul-21 14:25N 36°55' E 003°28'32012.9
2014-Jul-20 13:33N 37°39' E 010°07'2813.0
2014-Jul-20 11:26N 37°34' E 010°41'1213.7
2014-Jul-20 10:33N 37°31' E 010°56'6613.1
2014-Jul-20 05:32N 36°58' E 012°07'1313.0
2014-Jul-20 04:33N 36°51' E 012°21'1313.1
2014-Jul-20 03:33N 36°44' E 012°35'1312.9
2014-Jul-20 02:33N 36°37' E 012°48'1312.8
2014-Jul-20 01:33N 36°29' E 013°01'1312.6
2014-Jul-20 00:33N 36°22' E 013°14'1312.7
2014-Jul-19 23:33N 36°15' E 013°27'1313.3
2014-Jul-19 22:33N 36°07' E 013°40'1313.4
2014-Jul-19 21:33N 36°00' E 013°54'1313.4
2014-Jul-19 20:33N 35°53' E 014°08'1713.3
2014-Jul-19 19:18N 35°44' E 014°26'8 9.8
2014-Jul-19 18:31N 35°49' E 014°34'1 0.9
2014-Jul-19 17:15N 35°49' E 014°32'0 0.0
2014-Jul-19 13:27N 35°49' E 014°32'0 0.0
2014-Jul-19 03:27N 35°49' E 014°32'0 0.0
2014-Jul-18 22:32N 35°49' E 014°32'0 0.0
2014-Jul-18 21:32N 35°49' E 014°32'0 0.0
2014-Jul-18 16:23N 35°49' E 014°32'0 0.0
2014-Jul-18 15:29N 35°49' E 014°32'0 0.0
2014-Jul-18 14:32N 35°49' E 014°32'0 0.0
2014-Jul-18 13:29N 35°49' E 014°32'0 0.0
2014-Jul-18 12:32N 35°49' E 014°32'0 0.0
2014-Jul-18 11:17N 35°49' E 014°32'0 0.0
2014-Jul-18 10:32N 35°49' E 014°32'42 1.9
2014-Jul-17 12:05N 36°04' E 013°44'713.4
2014-Jul-17 11:32N 36°08' E 013°37'1413.9
2014-Jul-17 10:33N 36°15' E 013°22'1614.2
2014-Jul-17 09:24N 36°24' E 013°05'1214.0
2014-Jul-17 08:32N 36°31' E 012°53'41013.7
2014-Jul-16 02:33N 37°04' E 004°22'1615.3
2014-Jul-16 01:31N 37°02' E 004°03'1213.0
2014-Jul-16 00:34N 36°60' E 003°47'1414.1
2014-Jul-15 23:32N 36°56' E 003°30'1313.5
2014-Jul-15 22:33N 36°52' E 003°14'10 9.7
2014-Jul-15 21:31N 36°46' E 003°04'0 0.0
2014-Jul-15 10:06N 36°46' E 003°04'0 0.0
2014-Jul-15 09:30N 36°46' E 003°04'0 0.0
2014-Jul-15 01:09N 36°46' E 003°04'0 0.0
2014-Jul-14 23:33N 36°46' E 003°04'0 0.0
2014-Jul-14 22:33N 36°46' E 003°04'0 0.0
2014-Jul-14 20:30N 36°46' E 003°04'0 0.0
2014-Jul-14 19:24N 36°46' E 003°04'0 0.0
2014-Jul-14 18:30N 36°46' E 003°04'0 0.0
2014-Jul-14 17:30N 36°46' E 003°04'0 0.0
2014-Jul-14 16:18N 36°46' E 003°04'0 0.0
2014-Jul-14 14:30N 36°46' E 003°04'0 0.0
2014-Jul-14 13:12N 36°46' E 003°04'0 0.0
2014-Jul-14 10:30N 36°46' E 003°04'0 0.0
2014-Jul-14 09:12N 36°46' E 003°04'0 0.0
2014-Jul-14 08:30N 36°46' E 003°04'0 0.0
2014-Jul-14 04:30N 36°46' E 003°04'0 0.0
2014-Jul-14 01:18N 36°46' E 003°04'0 0.0
2014-Jul-14 00:24N 36°46' E 003°04'0 0.0
2014-Jul-13 19:06N 36°46' E 003°04'0 0.0
2014-Jul-13 18:30N 36°46' E 003°04'0 0.0
2014-Jul-13 17:11N 36°46' E 003°04'0 0.0
2014-Jul-13 16:32N 36°46' E 003°04'0 0.0
2014-Jul-13 13:11N 36°46' E 003°04'  

Dump ship's entire track history